sensor_id;sensor_type;location;lat;lon;timestamp;P1;durP1;ratioP1;P2;durP2;ratioP2
51459;SDS011;37534;39.772;2.718;2023-07-29T00:02:08;3.38;;;2.20;;
51459;SDS011;37534;39.772;2.718;2023-07-29T00:04:33;5.50;;;2.40;;
51459;SDS011;37534;39.772;2.718;2023-07-29T00:06:59;3.92;;;2.10;;
51459;SDS011;37534;39.772;2.718;2023-07-29T00:09:24;5.28;;;2.38;;
51459;SDS011;37534;39.772;2.718;2023-07-29T00:11:50;9.43;;;2.92;;
51459;SDS011;37534;39.772;2.718;2023-07-29T00:14:16;3.38;;;2.55;;
51459;SDS011;37534;39.772;2.718;2023-07-29T00:16:41;9.00;;;2.67;;
51459;SDS011;37534;39.772;2.718;2023-07-29T00:19:07;2.10;;;1.55;;
51459;SDS011;37534;39.772;2.718;2023-07-29T00:21:33;2.65;;;1.92;;
51459;SDS011;37534;39.772;2.718;2023-07-29T00:23:59;3.65;;;2.28;;
51459;SDS011;37534;39.772;2.718;2023-07-29T00:26:26;3.75;;;2.30;;
51459;SDS011;37534;39.772;2.718;2023-07-29T00:28:54;4.97;;;2.60;;
51459;SDS011;37534;39.772;2.718;2023-07-29T00:31:20;3.80;;;2.40;;
51459;SDS011;37534;39.772;2.718;2023-07-29T00:33:46;5.28;;;2.60;;
51459;SDS011;37534;39.772;2.718;2023-07-29T00:36:11;3.53;;;2.78;;
51459;SDS011;37534;39.772;2.718;2023-07-29T00:38:37;4.00;;;2.13;;
51459;SDS011;37534;39.772;2.718;2023-07-29T00:41:02;7.00;;;2.47;;
51459;SDS011;37534;39.772;2.718;2023-07-29T00:43:28;2.90;;;2.20;;
51459;SDS011;37534;39.772;2.718;2023-07-29T00:45:54;5.22;;;2.55;;
51459;SDS011;37534;39.772;2.718;2023-07-29T00:48:22;3.17;;;2.20;;
51459;SDS011;37534;39.772;2.718;2023-07-29T00:50:48;4.18;;;2.90;;
51459;SDS011;37534;39.772;2.718;2023-07-29T00:53:14;7.68;;;2.58;;
51459;SDS011;37534;39.772;2.718;2023-07-29T00:55:40;3.72;;;2.38;;
51459;SDS011;37534;39.772;2.718;2023-07-29T00:58:06;2.97;;;2.20;;
51459;SDS011;37534;39.772;2.718;2023-07-29T01:00:32;6.28;;;2.10;;
51459;SDS011;37534;39.772;2.718;2023-07-29T01:02:58;2.00;;;1.67;;
51459;SDS011;37534;39.772;2.718;2023-07-29T01:05:24;3.75;;;1.98;;
51459;SDS011;37534;39.772;2.718;2023-07-29T01:10:32;2.95;;;2.13;;
51459;SDS011;37534;39.772;2.718;2023-07-29T01:16:00;2.45;;;2.25;;
51459;SDS011;37534;39.772;2.718;2023-07-29T01:18:35;2.17;;;1.88;;
51459;SDS011;37534;39.772;2.718;2023-07-29T01:21:04;3.88;;;2.47;;
51459;SDS011;37534;39.772;2.718;2023-07-29T01:23:34;4.13;;;2.53;;
51459;SDS011;37534;39.772;2.718;2023-07-29T01:26:01;3.60;;;2.50;;
51459;SDS011;37534;39.772;2.718;2023-07-29T01:28:27;3.65;;;2.55;;
51459;SDS011;37534;39.772;2.718;2023-07-29T01:30:57;9.43;;;2.97;;
51459;SDS011;37534;39.772;2.718;2023-07-29T01:33:35;6.03;;;2.28;;
51459;SDS011;37534;39.772;2.718;2023-07-29T01:36:15;5.43;;;2.53;;
51459;SDS011;37534;39.772;2.718;2023-07-29T01:38:47;7.47;;;2.22;;
51459;SDS011;37534;39.772;2.718;2023-07-29T01:41:14;3.78;;;1.88;;
51459;SDS011;37534;39.772;2.718;2023-07-29T01:43:42;4.72;;;2.10;;
51459;SDS011;37534;39.772;2.718;2023-07-29T01:46:15;6.15;;;1.80;;
51459;SDS011;37534;39.772;2.718;2023-07-29T01:48:41;4.28;;;2.63;;
51459;SDS011;37534;39.772;2.718;2023-07-29T01:51:07;5.30;;;2.33;;
51459;SDS011;37534;39.772;2.718;2023-07-29T01:53:33;4.03;;;2.17;;
51459;SDS011;37534;39.772;2.718;2023-07-29T01:55:59;3.63;;;2.40;;
51459;SDS011;37534;39.772;2.718;2023-07-29T01:58:25;3.35;;;2.78;;
51459;SDS011;37534;39.772;2.718;2023-07-29T02:00:50;2.72;;;1.88;;
51459;SDS011;37534;39.772;2.718;2023-07-29T02:03:16;3.72;;;2.10;;
51459;SDS011;37534;39.772;2.718;2023-07-29T02:05:42;4.40;;;2.75;;
51459;SDS011;37534;39.772;2.718;2023-07-29T02:08:09;4.15;;;2.38;;
51459;SDS011;37534;39.772;2.718;2023-07-29T02:10:35;3.55;;;2.30;;
51459;SDS011;37534;39.772;2.718;2023-07-29T02:13:01;4.05;;;2.63;;
51459;SDS011;37534;39.772;2.718;2023-07-29T02:15:27;2.30;;;1.98;;
51459;SDS011;37534;39.772;2.718;2023-07-29T02:17:53;4.45;;;2.50;;
51459;SDS011;37534;39.772;2.718;2023-07-29T02:20:18;5.28;;;2.58;;
51459;SDS011;37534;39.772;2.718;2023-07-29T02:22:44;3.65;;;1.95;;
51459;SDS011;37534;39.772;2.718;2023-07-29T02:25:10;5.30;;;2.80;;
51459;SDS011;37534;39.772;2.718;2023-07-29T02:27:36;5.15;;;2.35;;
51459;SDS011;37534;39.772;2.718;2023-07-29T02:30:02;3.38;;;2.90;;
51459;SDS011;37534;39.772;2.718;2023-07-29T02:32:28;3.47;;;2.47;;
51459;SDS011;37534;39.772;2.718;2023-07-29T02:34:53;4.30;;;2.58;;
51459;SDS011;37534;39.772;2.718;2023-07-29T02:37:19;8.45;;;2.92;;
51459;SDS011;37534;39.772;2.718;2023-07-29T02:39:45;9.93;;;2.90;;
51459;SDS011;37534;39.772;2.718;2023-07-29T02:42:11;4.68;;;2.22;;
51459;SDS011;37534;39.772;2.718;2023-07-29T02:44:37;1.92;;;1.75;;
51459;SDS011;37534;39.772;2.718;2023-07-29T02:47:02;5.18;;;2.13;;
51459;SDS011;37534;39.772;2.718;2023-07-29T02:49:28;6.63;;;2.63;;
51459;SDS011;37534;39.772;2.718;2023-07-29T02:51:54;8.32;;;3.15;;
51459;SDS011;37534;39.772;2.718;2023-07-29T02:54:20;2.38;;;2.17;;
51459;SDS011;37534;39.772;2.718;2023-07-29T02:56:45;3.60;;;2.03;;
51459;SDS011;37534;39.772;2.718;2023-07-29T02:59:11;4.85;;;2.28;;
51459;SDS011;37534;39.772;2.718;2023-07-29T03:01:36;3.08;;;2.00;;
51459;SDS011;37534;39.772;2.718;2023-07-29T03:04:02;2.60;;;2.40;;
51459;SDS011;37534;39.772;2.718;2023-07-29T03:06:28;7.00;;;2.42;;
51459;SDS011;37534;39.772;2.718;2023-07-29T03:08:53;4.30;;;2.20;;
51459;SDS011;37534;39.772;2.718;2023-07-29T03:11:19;4.93;;;2.05;;
51459;SDS011;37534;39.772;2.718;2023-07-29T03:13:45;3.05;;;2.25;;
51459;SDS011;37534;39.772;2.718;2023-07-29T03:16:11;3.15;;;2.15;;
51459;SDS011;37534;39.772;2.718;2023-07-29T03:18:37;2.50;;;2.10;;
51459;SDS011;37534;39.772;2.718;2023-07-29T03:21:03;4.50;;;2.65;;
51459;SDS011;37534;39.772;2.718;2023-07-29T03:23:29;5.50;;;2.25;;
51459;SDS011;37534;39.772;2.718;2023-07-29T03:25:56;3.40;;;2.13;;
51459;SDS011;37534;39.772;2.718;2023-07-29T03:28:24;5.65;;;2.58;;
51459;SDS011;37534;39.772;2.718;2023-07-29T03:30:52;11.75;;;2.30;;
51459;SDS011;37534;39.772;2.718;2023-07-29T03:33:18;2.78;;;2.35;;
51459;SDS011;37534;39.772;2.718;2023-07-29T03:35:44;6.20;;;2.17;;
51459;SDS011;37534;39.772;2.718;2023-07-29T03:38:10;2.92;;;2.40;;
51459;SDS011;37534;39.772;2.718;2023-07-29T03:40:37;4.78;;;2.15;;
51459;SDS011;37534;39.772;2.718;2023-07-29T03:43:03;9.38;;;2.47;;
51459;SDS011;37534;39.772;2.718;2023-07-29T03:45:29;6.90;;;2.38;;
51459;SDS011;37534;39.772;2.718;2023-07-29T03:47:55;5.32;;;2.28;;
51459;SDS011;37534;39.772;2.718;2023-07-29T03:50:20;1.90;;;1.60;;
51459;SDS011;37534;39.772;2.718;2023-07-29T03:52:46;3.78;;;1.85;;
51459;SDS011;37534;39.772;2.718;2023-07-29T03:55:12;3.72;;;2.00;;
51459;SDS011;37534;39.772;2.718;2023-07-29T03:57:37;4.35;;;2.30;;
51459;SDS011;37534;39.772;2.718;2023-07-29T04:00:03;3.45;;;2.67;;
51459;SDS011;37534;39.772;2.718;2023-07-29T04:02:29;2.13;;;1.85;;
51459;SDS011;37534;39.772;2.718;2023-07-29T04:04:55;4.15;;;1.85;;
51459;SDS011;37534;39.772;2.718;2023-07-29T04:07:20;4.45;;;2.55;;
51459;SDS011;37534;39.772;2.718;2023-07-29T04:09:46;2.08;;;1.83;;
51459;SDS011;37534;39.772;2.718;2023-07-29T04:12:12;2.45;;;2.15;;
51459;SDS011;37534;39.772;2.718;2023-07-29T04:14:37;6.38;;;2.10;;
51459;SDS011;37534;39.772;2.718;2023-07-29T04:17:03;3.00;;;2.38;;
51459;SDS011;37534;39.772;2.718;2023-07-29T04:19:29;9.00;;;2.70;;
51459;SDS011;37534;39.772;2.718;2023-07-29T04:21:54;5.40;;;2.35;;
51459;SDS011;37534;39.772;2.718;2023-07-29T04:24:20;6.10;;;2.22;;
51459;SDS011;37534;39.772;2.718;2023-07-29T04:26:48;5.38;;;2.25;;
51459;SDS011;37534;39.772;2.718;2023-07-29T04:29:14;4.15;;;2.25;;
51459;SDS011;37534;39.772;2.718;2023-07-29T04:31:40;6.40;;;2.45;;
51459;SDS011;37534;39.772;2.718;2023-07-29T04:34:06;2.22;;;1.85;;
51459;SDS011;37534;39.772;2.718;2023-07-29T04:36:31;4.97;;;2.33;;
51459;SDS011;37534;39.772;2.718;2023-07-29T04:38:57;4.03;;;2.05;;
51459;SDS011;37534;39.772;2.718;2023-07-29T04:41:23;6.07;;;2.30;;
51459;SDS011;37534;39.772;2.718;2023-07-29T04:43:48;2.58;;;2.15;;
51459;SDS011;37534;39.772;2.718;2023-07-29T04:46:14;2.47;;;2.22;;
51459;SDS011;37534;39.772;2.718;2023-07-29T04:48:40;4.10;;;2.30;;
51459;SDS011;37534;39.772;2.718;2023-07-29T04:51:06;7.50;;;2.47;;
51459;SDS011;37534;39.772;2.718;2023-07-29T04:53:32;23.02;;;2.67;;
51459;SDS011;37534;39.772;2.718;2023-07-29T04:55:58;4.32;;;2.17;;
51459;SDS011;37534;39.772;2.718;2023-07-29T04:58:23;4.80;;;2.08;;
51459;SDS011;37534;39.772;2.718;2023-07-29T05:00:49;3.25;;;2.15;;
51459;SDS011;37534;39.772;2.718;2023-07-29T05:03:15;5.10;;;2.35;;
51459;SDS011;37534;39.772;2.718;2023-07-29T05:05:40;6.70;;;2.28;;
51459;SDS011;37534;39.772;2.718;2023-07-29T05:08:06;5.38;;;2.50;;
51459;SDS011;37534;39.772;2.718;2023-07-29T05:10:31;3.28;;;2.60;;
51459;SDS011;37534;39.772;2.718;2023-07-29T05:12:57;5.10;;;3.15;;
51459;SDS011;37534;39.772;2.718;2023-07-29T05:15:22;5.65;;;2.42;;
51459;SDS011;37534;39.772;2.718;2023-07-29T05:17:48;2.63;;;2.42;;
51459;SDS011;37534;39.772;2.718;2023-07-29T05:20:14;6.05;;;2.25;;
51459;SDS011;37534;39.772;2.718;2023-07-29T05:22:39;9.90;;;2.63;;
51459;SDS011;37534;39.772;2.718;2023-07-29T05:25:05;2.88;;;2.53;;
51459;SDS011;37534;39.772;2.718;2023-07-29T05:27:31;3.28;;;2.33;;
51459;SDS011;37534;39.772;2.718;2023-07-29T05:29:56;2.60;;;2.25;;
51459;SDS011;37534;39.772;2.718;2023-07-29T05:32:22;7.22;;;2.55;;
51459;SDS011;37534;39.772;2.718;2023-07-29T05:34:48;4.20;;;2.25;;
51459;SDS011;37534;39.772;2.718;2023-07-29T05:37:13;10.15;;;2.70;;
51459;SDS011;37534;39.772;2.718;2023-07-29T05:39:39;3.03;;;2.53;;
51459;SDS011;37534;39.772;2.718;2023-07-29T05:42:05;4.15;;;2.00;;
51459;SDS011;37534;39.772;2.718;2023-07-29T05:44:31;6.03;;;2.33;;
51459;SDS011;37534;39.772;2.718;2023-07-29T05:46:56;2.50;;;1.73;;
51459;SDS011;37534;39.772;2.718;2023-07-29T05:49:22;4.60;;;2.35;;
51459;SDS011;37534;39.772;2.718;2023-07-29T05:51:48;8.15;;;1.92;;
51459;SDS011;37534;39.772;2.718;2023-07-29T05:54:15;2.95;;;2.28;;
51459;SDS011;37534;39.772;2.718;2023-07-29T05:56:42;5.18;;;2.03;;
51459;SDS011;37534;39.772;2.718;2023-07-29T05:59:08;4.10;;;2.30;;
51459;SDS011;37534;39.772;2.718;2023-07-29T06:01:33;7.63;;;2.72;;
51459;SDS011;37534;39.772;2.718;2023-07-29T06:04:00;4.90;;;1.77;;
51459;SDS011;37534;39.772;2.718;2023-07-29T06:06:26;10.98;;;2.83;;
51459;SDS011;37534;39.772;2.718;2023-07-29T06:08:52;5.53;;;2.60;;
51459;SDS011;37534;39.772;2.718;2023-07-29T06:11:17;4.68;;;2.65;;
51459;SDS011;37534;39.772;2.718;2023-07-29T06:13:43;5.72;;;2.45;;
51459;SDS011;37534;39.772;2.718;2023-07-29T06:16:09;5.18;;;2.65;;
51459;SDS011;37534;39.772;2.718;2023-07-29T06:18:34;8.82;;;2.00;;
51459;SDS011;37534;39.772;2.718;2023-07-29T06:21:00;2.88;;;2.03;;
51459;SDS011;37534;39.772;2.718;2023-07-29T06:23:26;4.85;;;2.15;;
51459;SDS011;37534;39.772;2.718;2023-07-29T06:25:51;3.22;;;2.42;;
51459;SDS011;37534;39.772;2.718;2023-07-29T06:28:17;2.78;;;2.15;;
51459;SDS011;37534;39.772;2.718;2023-07-29T06:30:42;3.28;;;2.33;;
51459;SDS011;37534;39.772;2.718;2023-07-29T06:33:08;4.28;;;1.92;;
51459;SDS011;37534;39.772;2.718;2023-07-29T06:35:34;2.75;;;2.03;;
51459;SDS011;37534;39.772;2.718;2023-07-29T06:38:00;4.90;;;2.55;;
51459;SDS011;37534;39.772;2.718;2023-07-29T06:40:25;10.32;;;2.47;;
51459;SDS011;37534;39.772;2.718;2023-07-29T06:42:51;3.50;;;2.08;;
51459;SDS011;37534;39.772;2.718;2023-07-29T06:45:16;5.70;;;2.85;;
51459;SDS011;37534;39.772;2.718;2023-07-29T06:47:42;3.30;;;2.40;;
51459;SDS011;37534;39.772;2.718;2023-07-29T06:50:09;23.83;;;3.05;;
51459;SDS011;37534;39.772;2.718;2023-07-29T06:52:35;7.60;;;4.70;;
51459;SDS011;37534;39.772;2.718;2023-07-29T06:55:02;4.90;;;3.83;;
51459;SDS011;37534;39.772;2.718;2023-07-29T06:57:27;5.55;;;4.38;;
51459;SDS011;37534;39.772;2.718;2023-07-29T06:59:53;6.55;;;3.95;;
51459;SDS011;37534;39.772;2.718;2023-07-29T07:02:19;4.75;;;4.15;;
51459;SDS011;37534;39.772;2.718;2023-07-29T07:04:44;10.13;;;5.38;;
51459;SDS011;37534;39.772;2.718;2023-07-29T07:07:10;9.32;;;6.28;;
51459;SDS011;37534;39.772;2.718;2023-07-29T07:09:35;10.73;;;6.43;;
51459;SDS011;37534;39.772;2.718;2023-07-29T07:12:01;17.67;;;6.68;;
51459;SDS011;37534;39.772;2.718;2023-07-29T07:14:27;9.57;;;6.45;;
51459;SDS011;37534;39.772;2.718;2023-07-29T07:16:52;15.70;;;7.38;;
51459;SDS011;37534;39.772;2.718;2023-07-29T07:19:18;10.63;;;7.40;;
51459;SDS011;37534;39.772;2.718;2023-07-29T07:21:43;10.50;;;6.25;;
51459;SDS011;37534;39.772;2.718;2023-07-29T07:24:09;7.05;;;5.18;;
51459;SDS011;37534;39.772;2.718;2023-07-29T07:26:35;7.00;;;6.20;;
51459;SDS011;37534;39.772;2.718;2023-07-29T07:29:00;5.13;;;4.25;;
51459;SDS011;37534;39.772;2.718;2023-07-29T07:31:26;9.57;;;4.70;;
51459;SDS011;37534;39.772;2.718;2023-07-29T07:33:51;5.15;;;3.53;;
51459;SDS011;37534;39.772;2.718;2023-07-29T07:36:17;2.78;;;2.50;;
51459;SDS011;37534;39.772;2.718;2023-07-29T07:38:42;6.63;;;2.80;;
51459;SDS011;37534;39.772;2.718;2023-07-29T07:41:08;5.57;;;2.15;;
51459;SDS011;37534;39.772;2.718;2023-07-29T07:43:33;5.57;;;2.45;;
51459;SDS011;37534;39.772;2.718;2023-07-29T07:46:00;3.63;;;2.03;;
51459;SDS011;37534;39.772;2.718;2023-07-29T07:48:26;4.03;;;1.90;;
51459;SDS011;37534;39.772;2.718;2023-07-29T07:50:52;2.65;;;1.70;;
51459;SDS011;37534;39.772;2.718;2023-07-29T07:53:18;2.53;;;2.05;;
51459;SDS011;37534;39.772;2.718;2023-07-29T07:55:46;2.63;;;2.15;;
51459;SDS011;37534;39.772;2.718;2023-07-29T07:58:12;5.20;;;2.17;;
51459;SDS011;37534;39.772;2.718;2023-07-29T08:00:39;3.17;;;2.05;;
51459;SDS011;37534;39.772;2.718;2023-07-29T08:03:05;3.15;;;2.20;;
51459;SDS011;37534;39.772;2.718;2023-07-29T08:05:30;1.35;;;1.25;;
51459;SDS011;37534;39.772;2.718;2023-07-29T08:07:57;3.25;;;1.88;;
51459;SDS011;37534;39.772;2.718;2023-07-29T08:10:23;1.98;;;1.45;;
51459;SDS011;37534;39.772;2.718;2023-07-29T08:12:48;3.63;;;2.22;;
51459;SDS011;37534;39.772;2.718;2023-07-29T08:15:14;4.85;;;2.67;;
51459;SDS011;37534;39.772;2.718;2023-07-29T08:17:39;3.13;;;2.33;;
51459;SDS011;37534;39.772;2.718;2023-07-29T08:20:05;3.13;;;2.08;;
51459;SDS011;37534;39.772;2.718;2023-07-29T08:22:31;3.90;;;2.25;;
51459;SDS011;37534;39.772;2.718;2023-07-29T08:24:57;10.50;;;2.35;;
51459;SDS011;37534;39.772;2.718;2023-07-29T08:27:24;7.60;;;1.92;;
51459;SDS011;37534;39.772;2.718;2023-07-29T08:29:49;4.10;;;1.77;;
51459;SDS011;37534;39.772;2.718;2023-07-29T08:32:15;6.78;;;2.55;;
51459;SDS011;37534;39.772;2.718;2023-07-29T08:34:41;5.88;;;1.90;;
51459;SDS011;37534;39.772;2.718;2023-07-29T08:37:06;2.90;;;1.63;;
51459;SDS011;37534;39.772;2.718;2023-07-29T08:39:32;3.72;;;1.60;;
51459;SDS011;37534;39.772;2.718;2023-07-29T08:41:59;2.97;;;1.73;;
51459;SDS011;37534;39.772;2.718;2023-07-29T08:44:41;4.03;;;1.92;;
51459;SDS011;37534;39.772;2.718;2023-07-29T08:47:08;3.70;;;1.85;;
51459;SDS011;37534;39.772;2.718;2023-07-29T08:49:34;7.07;;;2.25;;
51459;SDS011;37534;39.772;2.718;2023-07-29T08:52:01;2.08;;;1.67;;
51459;SDS011;37534;39.772;2.718;2023-07-29T08:54:28;3.88;;;1.75;;
51459;SDS011;37534;39.772;2.718;2023-07-29T08:56:54;7.00;;;2.55;;
51459;SDS011;37534;39.772;2.718;2023-07-29T08:59:20;2.75;;;2.05;;
51459;SDS011;37534;39.772;2.718;2023-07-29T09:01:46;1.48;;;1.38;;
51459;SDS011;37534;39.772;2.718;2023-07-29T09:04:12;10.60;;;2.35;;
51459;SDS011;37534;39.772;2.718;2023-07-29T09:06:38;4.15;;;1.85;;
51459;SDS011;37534;39.772;2.718;2023-07-29T09:09:05;3.58;;;1.67;;
51459;SDS011;37534;39.772;2.718;2023-07-29T09:11:32;2.95;;;1.30;;
51459;SDS011;37534;39.772;2.718;2023-07-29T09:13:59;2.65;;;1.58;;
51459;SDS011;37534;39.772;2.718;2023-07-29T09:16:24;3.25;;;1.58;;
51459;SDS011;37534;39.772;2.718;2023-07-29T09:18:51;3.72;;;1.65;;
51459;SDS011;37534;39.772;2.718;2023-07-29T09:21:26;3.72;;;1.48;;
51459;SDS011;37534;39.772;2.718;2023-07-29T09:23:53;2.35;;;1.60;;
51459;SDS011;37534;39.772;2.718;2023-07-29T09:26:26;2.35;;;1.60;;
51459;SDS011;37534;39.772;2.718;2023-07-29T09:28:53;2.63;;;1.75;;
51459;SDS011;37534;39.772;2.718;2023-07-29T09:31:24;2.15;;;1.48;;
51459;SDS011;37534;39.772;2.718;2023-07-29T09:33:58;4.33;;;1.37;;
51459;SDS011;37534;39.772;2.718;2023-07-29T09:36:25;4.55;;;1.98;;
51459;SDS011;37534;39.772;2.718;2023-07-29T09:38:57;4.82;;;1.65;;
51459;SDS011;37534;39.772;2.718;2023-07-29T09:41:23;1.63;;;1.50;;
51459;SDS011;37534;39.772;2.718;2023-07-29T09:44:00;8.27;;;2.20;;
51459;SDS011;37534;39.772;2.718;2023-07-29T09:46:37;7.13;;;1.70;;
51459;SDS011;37534;39.772;2.718;2023-07-29T09:49:06;1.95;;;1.40;;
51459;SDS011;37534;39.772;2.718;2023-07-29T09:51:39;3.95;;;1.98;;
51459;SDS011;37534;39.772;2.718;2023-07-29T09:54:04;3.05;;;1.90;;
51459;SDS011;37534;39.772;2.718;2023-07-29T09:56:30;3.90;;;1.77;;
51459;SDS011;37534;39.772;2.718;2023-07-29T09:58:56;1.90;;;1.38;;
51459;SDS011;37534;39.772;2.718;2023-07-29T10:01:22;2.67;;;2.22;;
51459;SDS011;37534;39.772;2.718;2023-07-29T10:03:48;6.47;;;1.60;;
51459;SDS011;37534;39.772;2.718;2023-07-29T10:06:14;11.48;;;1.83;;
51459;SDS011;37534;39.772;2.718;2023-07-29T10:08:40;3.03;;;1.77;;
51459;SDS011;37534;39.772;2.718;2023-07-29T10:11:08;4.72;;;1.65;;
51459;SDS011;37534;39.772;2.718;2023-07-29T10:13:36;5.75;;;2.17;;
51459;SDS011;37534;39.772;2.718;2023-07-29T10:16:03;6.82;;;1.67;;
51459;SDS011;37534;39.772;2.718;2023-07-29T10:18:30;2.50;;;1.60;;
51459;SDS011;37534;39.772;2.718;2023-07-29T10:20:57;3.15;;;1.65;;
51459;SDS011;37534;39.772;2.718;2023-07-29T10:23:25;2.08;;;1.33;;
51459;SDS011;37534;39.772;2.718;2023-07-29T10:25:57;8.75;;;2.15;;
51459;SDS011;37534;39.772;2.718;2023-07-29T10:28:29;6.15;;;1.83;;
51459;SDS011;37534;39.772;2.718;2023-07-29T10:30:59;3.53;;;1.90;;
51459;SDS011;37534;39.772;2.718;2023-07-29T10:33:25;3.25;;;1.73;;
51459;SDS011;37534;39.772;2.718;2023-07-29T10:35:51;3.58;;;1.35;;
51459;SDS011;37534;39.772;2.718;2023-07-29T10:38:19;2.80;;;1.40;;
51459;SDS011;37534;39.772;2.718;2023-07-29T10:40:56;4.78;;;1.52;;
51459;SDS011;37534;39.772;2.718;2023-07-29T10:43:27;3.33;;;1.98;;
51459;SDS011;37534;39.772;2.718;2023-07-29T10:45:58;3.70;;;1.40;;
51459;SDS011;37534;39.772;2.718;2023-07-29T10:48:43;3.88;;;1.70;;
51459;SDS011;37534;39.772;2.718;2023-07-29T10:51:29;5.93;;;1.85;;
51459;SDS011;37534;39.772;2.718;2023-07-29T10:54:03;5.63;;;2.40;;
51459;SDS011;37534;39.772;2.718;2023-07-29T10:56:36;6.30;;;1.98;;
51459;SDS011;37534;39.772;2.718;2023-07-29T11:01:37;5.57;;;3.25;;
51459;SDS011;37534;39.772;2.718;2023-07-29T11:09:42;5.85;;;3.03;;
51459;SDS011;37534;39.772;2.718;2023-07-29T11:15:11;2.88;;;1.92;;
51459;SDS011;37534;39.772;2.718;2023-07-29T11:20:14;6.43;;;3.08;;
51459;SDS011;37534;39.772;2.718;2023-07-29T11:22:42;4.88;;;3.30;;
51459;SDS011;37534;39.772;2.718;2023-07-29T11:25:09;3.90;;;1.88;;
51459;SDS011;37534;39.772;2.718;2023-07-29T11:27:36;5.32;;;2.65;;
51459;SDS011;37534;39.772;2.718;2023-07-29T11:30:03;4.68;;;1.70;;
51459;SDS011;37534;39.772;2.718;2023-07-29T11:32:31;3.22;;;1.75;;
51459;SDS011;37534;39.772;2.718;2023-07-29T11:35:01;3.22;;;2.08;;
51459;SDS011;37534;39.772;2.718;2023-07-29T11:37:32;2.50;;;1.58;;
51459;SDS011;37534;39.772;2.718;2023-07-29T11:40:02;6.00;;;1.92;;
51459;SDS011;37534;39.772;2.718;2023-07-29T11:42:30;1.98;;;1.42;;
51459;SDS011;37534;39.772;2.718;2023-07-29T11:44:58;3.67;;;1.88;;
51459;SDS011;37534;39.772;2.718;2023-07-29T11:47:28;2.40;;;1.75;;
51459;SDS011;37534;39.772;2.718;2023-07-29T11:49:57;4.25;;;2.42;;
51459;SDS011;37534;39.772;2.718;2023-07-29T11:52:25;15.10;;;1.90;;
51459;SDS011;37534;39.772;2.718;2023-07-29T11:54:52;2.17;;;1.60;;
51459;SDS011;37534;39.772;2.718;2023-07-29T11:57:19;3.70;;;1.90;;
51459;SDS011;37534;39.772;2.718;2023-07-29T11:59:46;3.70;;;1.85;;
51459;SDS011;37534;39.772;2.718;2023-07-29T12:02:13;3.00;;;1.52;;
51459;SDS011;37534;39.772;2.718;2023-07-29T12:04:41;8.40;;;2.15;;
51459;SDS011;37534;39.772;2.718;2023-07-29T12:07:08;2.20;;;1.63;;
51459;SDS011;37534;39.772;2.718;2023-07-29T12:09:34;4.15;;;1.90;;
51459;SDS011;37534;39.772;2.718;2023-07-29T12:12:04;2.20;;;1.52;;
51459;SDS011;37534;39.772;2.718;2023-07-29T12:14:31;9.65;;;1.60;;
51459;SDS011;37534;39.772;2.718;2023-07-29T12:16:59;3.92;;;1.90;;
51459;SDS011;37534;39.772;2.718;2023-07-29T12:19:31;2.05;;;1.58;;
51459;SDS011;37534;39.772;2.718;2023-07-29T12:21:57;5.03;;;1.70;;
51459;SDS011;37534;39.772;2.718;2023-07-29T12:24:23;5.88;;;1.80;;
51459;SDS011;37534;39.772;2.718;2023-07-29T12:26:49;2.30;;;1.65;;
51459;SDS011;37534;39.772;2.718;2023-07-29T12:29:16;2.42;;;1.60;;
51459;SDS011;37534;39.772;2.718;2023-07-29T12:31:47;3.45;;;1.80;;
51459;SDS011;37534;39.772;2.718;2023-07-29T12:34:19;5.93;;;1.45;;
51459;SDS011;37534;39.772;2.718;2023-07-29T12:36:49;4.95;;;1.55;;
51459;SDS011;37534;39.772;2.718;2023-07-29T12:39:19;3.75;;;1.85;;
51459;SDS011;37534;39.772;2.718;2023-07-29T12:41:49;3.92;;;1.65;;
51459;SDS011;37534;39.772;2.718;2023-07-29T12:44:17;6.05;;;1.52;;
51459;SDS011;37534;39.772;2.718;2023-07-29T12:46:43;3.50;;;1.83;;
51459;SDS011;37534;39.772;2.718;2023-07-29T12:49:09;4.70;;;1.70;;
51459;SDS011;37534;39.772;2.718;2023-07-29T12:51:35;4.25;;;2.08;;
51459;SDS011;37534;39.772;2.718;2023-07-29T12:54:02;6.15;;;1.83;;
51459;SDS011;37534;39.772;2.718;2023-07-29T12:56:28;2.22;;;1.55;;
51459;SDS011;37534;39.772;2.718;2023-07-29T12:58:56;6.28;;;1.77;;
51459;SDS011;37534;39.772;2.718;2023-07-29T13:01:23;2.75;;;1.80;;
51459;SDS011;37534;39.772;2.718;2023-07-29T13:03:48;4.47;;;1.92;;
51459;SDS011;37534;39.772;2.718;2023-07-29T13:06:14;2.75;;;1.42;;
51459;SDS011;37534;39.772;2.718;2023-07-29T13:08:40;3.95;;;1.50;;
51459;SDS011;37534;39.772;2.718;2023-07-29T13:11:06;4.55;;;1.42;;
51459;SDS011;37534;39.772;2.718;2023-07-29T13:13:32;2.75;;;1.50;;
51459;SDS011;37534;39.772;2.718;2023-07-29T13:15:58;5.93;;;1.77;;
51459;SDS011;37534;39.772;2.718;2023-07-29T13:18:24;5.38;;;2.42;;
51459;SDS011;37534;39.772;2.718;2023-07-29T13:20:50;4.28;;;1.65;;
51459;SDS011;37534;39.772;2.718;2023-07-29T13:23:16;5.95;;;1.73;;
51459;SDS011;37534;39.772;2.718;2023-07-29T13:25:41;5.50;;;1.48;;
51459;SDS011;37534;39.772;2.718;2023-07-29T13:28:10;4.72;;;1.98;;
51459;SDS011;37534;39.772;2.718;2023-07-29T13:30:38;5.10;;;1.95;;
51459;SDS011;37534;39.772;2.718;2023-07-29T13:33:07;5.25;;;2.53;;
51459;SDS011;37534;39.772;2.718;2023-07-29T13:35:33;5.47;;;2.03;;
51459;SDS011;37534;39.772;2.718;2023-07-29T13:38:02;7.00;;;2.38;;
51459;SDS011;37534;39.772;2.718;2023-07-29T13:40:31;3.80;;;1.83;;
51459;SDS011;37534;39.772;2.718;2023-07-29T13:42:57;5.22;;;1.60;;
51459;SDS011;37534;39.772;2.718;2023-07-29T13:45:22;5.97;;;1.60;;
51459;SDS011;37534;39.772;2.718;2023-07-29T13:47:48;1.88;;;1.42;;
51459;SDS011;37534;39.772;2.718;2023-07-29T13:50:15;3.35;;;2.08;;
51459;SDS011;37534;39.772;2.718;2023-07-29T13:52:41;10.15;;;2.15;;
51459;SDS011;37534;39.772;2.718;2023-07-29T13:55:07;4.80;;;1.40;;
51459;SDS011;37534;39.772;2.718;2023-07-29T13:57:33;5.40;;;2.00;;
51459;SDS011;37534;39.772;2.718;2023-07-29T13:59:58;5.20;;;1.95;;
51459;SDS011;37534;39.772;2.718;2023-07-29T14:02:24;2.78;;;1.45;;
51459;SDS011;37534;39.772;2.718;2023-07-29T14:04:51;4.05;;;1.77;;
51459;SDS011;37534;39.772;2.718;2023-07-29T14:07:17;2.05;;;1.67;;
51459;SDS011;37534;39.772;2.718;2023-07-29T14:09:43;5.15;;;1.80;;
51459;SDS011;37534;39.772;2.718;2023-07-29T14:12:08;3.03;;;1.50;;
51459;SDS011;37534;39.772;2.718;2023-07-29T14:14:39;7.88;;;1.90;;
51459;SDS011;37534;39.772;2.718;2023-07-29T14:17:12;2.65;;;1.42;;
51459;SDS011;37534;39.772;2.718;2023-07-29T14:19:37;3.00;;;1.75;;
51459;SDS011;37534;39.772;2.718;2023-07-29T14:22:03;3.45;;;1.73;;
51459;SDS011;37534;39.772;2.718;2023-07-29T14:24:30;4.68;;;1.73;;
51459;SDS011;37534;39.772;2.718;2023-07-29T14:26:56;3.63;;;1.83;;
51459;SDS011;37534;39.772;2.718;2023-07-29T14:29:21;3.60;;;1.55;;
51459;SDS011;37534;39.772;2.718;2023-07-29T14:31:47;3.50;;;1.55;;
51459;SDS011;37534;39.772;2.718;2023-07-29T14:34:13;3.65;;;1.48;;
51459;SDS011;37534;39.772;2.718;2023-07-29T14:36:39;3.10;;;1.67;;
51459;SDS011;37534;39.772;2.718;2023-07-29T14:39:05;2.08;;;1.50;;
51459;SDS011;37534;39.772;2.718;2023-07-29T14:41:31;5.05;;;1.48;;
51459;SDS011;37534;39.772;2.718;2023-07-29T14:43:57;2.67;;;1.48;;
51459;SDS011;37534;39.772;2.718;2023-07-29T14:46:22;3.28;;;1.38;;
51459;SDS011;37534;39.772;2.718;2023-07-29T14:48:48;2.00;;;1.33;;
51459;SDS011;37534;39.772;2.718;2023-07-29T14:51:13;4.35;;;1.65;;
51459;SDS011;37534;39.772;2.718;2023-07-29T14:53:39;8.60;;;1.75;;
51459;SDS011;37534;39.772;2.718;2023-07-29T14:56:05;2.45;;;1.48;;
51459;SDS011;37534;39.772;2.718;2023-07-29T14:58:31;6.20;;;1.52;;
51459;SDS011;37534;39.772;2.718;2023-07-29T15:00:56;3.47;;;1.98;;
51459;SDS011;37534;39.772;2.718;2023-07-29T15:03:23;4.43;;;1.63;;
51459;SDS011;37534;39.772;2.718;2023-07-29T15:05:49;6.40;;;1.85;;